sensor_id;sensor_type;location;lat;lon;timestamp;P1;durP1;ratioP1;P2;durP2;ratioP2
37517;SDS011;23366;52.498;13.446;2024-02-21T00:01:56;12.18;;;2.33;;
37517;SDS011;23366;52.498;13.446;2024-02-21T00:04:22;9.80;;;2.88;;
37517;SDS011;23366;52.498;13.446;2024-02-21T00:06:48;4.45;;;2.90;;
37517;SDS011;23366;52.498;13.446;2024-02-21T00:09:14;5.50;;;4.00;;
37517;SDS011;23366;52.498;13.446;2024-02-21T00:11:40;7.82;;;2.90;;
37517;SDS011;23366;52.498;13.446;2024-02-21T00:14:06;8.80;;;3.15;;
37517;SDS011;23366;52.498;13.446;2024-02-21T00:16:32;7.32;;;2.35;;
37517;SDS011;23366;52.498;13.446;2024-02-21T00:18:58;11.75;;;2.63;;
37517;SDS011;23366;52.498;13.446;2024-02-21T00:21:24;6.88;;;3.10;;
37517;SDS011;23366;52.498;13.446;2024-02-21T00:23:50;7.38;;;2.78;;
37517;SDS011;23366;52.498;13.446;2024-02-21T00:26:16;8.13;;;2.72;;
37517;SDS011;23366;52.498;13.446;2024-02-21T00:28:42;5.60;;;4.15;;
37517;SDS011;23366;52.498;13.446;2024-02-21T00:31:08;7.65;;;2.65;;
37517;SDS011;23366;52.498;13.446;2024-02-21T00:33:34;6.68;;;2.72;;
37517;SDS011;23366;52.498;13.446;2024-02-21T00:35:59;6.38;;;2.72;;
37517;SDS011;23366;52.498;13.446;2024-02-21T00:38:25;7.07;;;2.47;;
37517;SDS011;23366;52.498;13.446;2024-02-21T00:40:51;13.27;;;4.15;;
37517;SDS011;23366;52.498;13.446;2024-02-21T00:43:17;12.25;;;3.05;;
37517;SDS011;23366;52.498;13.446;2024-02-21T00:45:43;13.07;;;3.08;;
37517;SDS011;23366;52.498;13.446;2024-02-21T00:48:09;12.77;;;2.38;;
37517;SDS011;23366;52.498;13.446;2024-02-21T00:50:35;10.48;;;3.15;;
37517;SDS011;23366;52.498;13.446;2024-02-21T00:53:02;8.52;;;3.80;;
37517;SDS011;23366;52.498;13.446;2024-02-21T00:55:28;15.95;;;3.60;;
37517;SDS011;23366;52.498;13.446;2024-02-21T00:57:55;20.98;;;3.97;;
37517;SDS011;23366;52.498;13.446;2024-02-21T01:00:21;14.15;;;3.08;;
37517;SDS011;23366;52.498;13.446;2024-02-21T01:02:47;5.85;;;2.15;;
37517;SDS011;23366;52.498;13.446;2024-02-21T01:05:13;9.93;;;2.70;;
37517;SDS011;23366;52.498;13.446;2024-02-21T01:07:39;8.73;;;2.88;;
37517;SDS011;23366;52.498;13.446;2024-02-21T01:10:06;11.80;;;2.15;;
37517;SDS011;23366;52.498;13.446;2024-02-21T01:12:32;10.80;;;2.47;;
37517;SDS011;23366;52.498;13.446;2024-02-21T01:14:58;9.18;;;2.65;;
37517;SDS011;23366;52.498;13.446;2024-02-21T01:17:23;8.15;;;3.50;;
37517;SDS011;23366;52.498;13.446;2024-02-21T01:19:49;15.50;;;3.35;;
37517;SDS011;23366;52.498;13.446;2024-02-21T01:22:15;9.43;;;2.20;;
37517;SDS011;23366;52.498;13.446;2024-02-21T01:24:41;8.77;;;2.97;;
37517;SDS011;23366;52.498;13.446;2024-02-21T01:27:07;8.55;;;2.53;;
37517;SDS011;23366;52.498;13.446;2024-02-21T01:29:33;8.27;;;2.70;;
37517;SDS011;23366;52.498;13.446;2024-02-21T01:31:59;9.18;;;3.50;;
37517;SDS011;23366;52.498;13.446;2024-02-21T01:34:25;7.20;;;2.85;;
37517;SDS011;23366;52.498;13.446;2024-02-21T01:36:51;8.80;;;2.35;;
37517;SDS011;23366;52.498;13.446;2024-02-21T01:39:17;14.27;;;4.40;;
37517;SDS011;23366;52.498;13.446;2024-02-21T01:41:43;6.32;;;2.78;;
37517;SDS011;23366;52.498;13.446;2024-02-21T01:44:09;3.05;;;2.53;;
37517;SDS011;23366;52.498;13.446;2024-02-21T01:46:35;6.47;;;2.28;;
37517;SDS011;23366;52.498;13.446;2024-02-21T01:49:01;8.73;;;2.90;;
37517;SDS011;23366;52.498;13.446;2024-02-21T01:51:27;8.25;;;3.45;;
37517;SDS011;23366;52.498;13.446;2024-02-21T01:53:53;16.67;;;3.00;;
37517;SDS011;23366;52.498;13.446;2024-02-21T01:56:21;9.02;;;2.88;;
37517;SDS011;23366;52.498;13.446;2024-02-21T01:58:47;4.57;;;2.40;;
37517;SDS011;23366;52.498;13.446;2024-02-21T02:01:14;5.25;;;3.63;;
37517;SDS011;23366;52.498;13.446;2024-02-21T02:03:40;8.75;;;2.88;;
37517;SDS011;23366;52.498;13.446;2024-02-21T02:06:06;5.47;;;1.88;;
37517;SDS011;23366;52.498;13.446;2024-02-21T02:08:32;5.15;;;2.80;;
37517;SDS011;23366;52.498;13.446;2024-02-21T02:10:58;11.60;;;4.03;;
37517;SDS011;23366;52.498;13.446;2024-02-21T02:13:24;8.35;;;2.95;;
37517;SDS011;23366;52.498;13.446;2024-02-21T02:15:50;4.47;;;3.08;;
37517;SDS011;23366;52.498;13.446;2024-02-21T02:18:17;12.75;;;2.55;;
37517;SDS011;23366;52.498;13.446;2024-02-21T02:20:44;6.10;;;3.03;;
37517;SDS011;23366;52.498;13.446;2024-02-21T02:25:48;4.10;;;2.38;;
37517;SDS011;23366;52.498;13.446;2024-02-21T02:28:18;15.65;;;3.53;;
37517;SDS011;23366;52.498;13.446;2024-02-21T02:30:44;9.02;;;2.45;;
37517;SDS011;23366;52.498;13.446;2024-02-21T02:33:10;5.05;;;2.28;;
37517;SDS011;23366;52.498;13.446;2024-02-21T02:35:36;5.28;;;2.00;;
37517;SDS011;23366;52.498;13.446;2024-02-21T02:38:03;13.70;;;3.00;;
37517;SDS011;23366;52.498;13.446;2024-02-21T02:40:29;15.50;;;3.55;;
37517;SDS011;23366;52.498;13.446;2024-02-21T02:42:55;3.30;;;2.38;;
37517;SDS011;23366;52.498;13.446;2024-02-21T02:45:21;3.90;;;2.00;;
37517;SDS011;23366;52.498;13.446;2024-02-21T02:47:49;5.45;;;1.88;;
37517;SDS011;23366;52.498;13.446;2024-02-21T02:50:15;10.93;;;3.42;;
37517;SDS011;23366;52.498;13.446;2024-02-21T02:52:41;11.75;;;2.60;;
37517;SDS011;23366;52.498;13.446;2024-02-21T02:55:07;4.47;;;3.20;;
37517;SDS011;23366;52.498;13.446;2024-02-21T02:57:33;9.38;;;3.10;;
37517;SDS011;23366;52.498;13.446;2024-02-21T02:59:59;18.05;;;3.78;;
37517;SDS011;23366;52.498;13.446;2024-02-21T03:02:25;7.72;;;2.97;;
37517;SDS011;23366;52.498;13.446;2024-02-21T03:04:51;7.72;;;2.92;;
37517;SDS011;23366;52.498;13.446;2024-02-21T03:07:19;9.45;;;2.30;;
37517;SDS011;23366;52.498;13.446;2024-02-21T03:09:45;12.00;;;4.10;;
37517;SDS011;23366;52.498;13.446;2024-02-21T03:12:11;11.25;;;2.78;;
37517;SDS011;23366;52.498;13.446;2024-02-21T03:14:37;9.00;;;3.60;;
37517;SDS011;23366;52.498;13.446;2024-02-21T03:17:03;12.10;;;3.78;;
37517;SDS011;23366;52.498;13.446;2024-02-21T03:19:30;11.32;;;3.20;;
37517;SDS011;23366;52.498;13.446;2024-02-21T03:21:56;11.05;;;3.80;;
37517;SDS011;23366;52.498;13.446;2024-02-21T03:24:22;6.85;;;3.45;;
37517;SDS011;23366;52.498;13.446;2024-02-21T03:26:48;8.18;;;2.22;;
37517;SDS011;23366;52.498;13.446;2024-02-21T03:29:15;5.57;;;2.85;;
37517;SDS011;23366;52.498;13.446;2024-02-21T03:31:41;5.57;;;2.28;;
37517;SDS011;23366;52.498;13.446;2024-02-21T03:34:08;8.52;;;3.35;;
37517;SDS011;23366;52.498;13.446;2024-02-21T03:36:34;3.15;;;2.85;;
37517;SDS011;23366;52.498;13.446;2024-02-21T03:39:00;6.50;;;3.13;;
37517;SDS011;23366;52.498;13.446;2024-02-21T03:41:26;10.45;;;3.92;;
37517;SDS011;23366;52.498;13.446;2024-02-21T03:43:52;8.43;;;3.13;;
37517;SDS011;23366;52.498;13.446;2024-02-21T03:46:18;5.68;;;2.45;;
37517;SDS011;23366;52.498;13.446;2024-02-21T03:48:44;7.05;;;3.33;;
37517;SDS011;23366;52.498;13.446;2024-02-21T03:51:11;6.70;;;3.30;;
37517;SDS011;23366;52.498;13.446;2024-02-21T03:53:37;6.72;;;3.42;;
37517;SDS011;23366;52.498;13.446;2024-02-21T03:56:03;13.43;;;4.03;;
37517;SDS011;23366;52.498;13.446;2024-02-21T03:58:29;10.30;;;3.47;;
37517;SDS011;23366;52.498;13.446;2024-02-21T04:00:56;14.27;;;4.93;;
37517;SDS011;23366;52.498;13.446;2024-02-21T04:03:22;11.57;;;5.18;;
37517;SDS011;23366;52.498;13.446;2024-02-21T04:05:48;7.55;;;2.45;;
37517;SDS011;23366;52.498;13.446;2024-02-21T04:08:14;6.60;;;3.20;;
37517;SDS011;23366;52.498;13.446;2024-02-21T04:10:40;10.38;;;3.80;;
37517;SDS011;23366;52.498;13.446;2024-02-21T04:13:06;5.50;;;3.38;;
37517;SDS011;23366;52.498;13.446;2024-02-21T04:15:32;10.80;;;3.17;;
37517;SDS011;23366;52.498;13.446;2024-02-21T04:17:58;9.65;;;3.15;;
37517;SDS011;23366;52.498;13.446;2024-02-21T04:20:24;8.20;;;3.70;;
37517;SDS011;23366;52.498;13.446;2024-02-21T04:22:51;15.05;;;3.88;;
37517;SDS011;23366;52.498;13.446;2024-02-21T04:25:17;17.85;;;5.60;;
37517;SDS011;23366;52.498;13.446;2024-02-21T04:27:42;9.68;;;4.07;;
37517;SDS011;23366;52.498;13.446;2024-02-21T04:30:09;8.60;;;4.07;;
37517;SDS011;23366;52.498;13.446;2024-02-21T04:32:35;7.28;;;3.05;;
37517;SDS011;23366;52.498;13.446;2024-02-21T04:35:01;7.13;;;2.85;;
37517;SDS011;23366;52.498;13.446;2024-02-21T04:37:27;12.60;;;4.85;;
37517;SDS011;23366;52.498;13.446;2024-02-21T04:39:53;15.68;;;4.22;;
37517;SDS011;23366;52.498;13.446;2024-02-21T04:42:19;7.78;;;3.63;;
37517;SDS011;23366;52.498;13.446;2024-02-21T04:44:45;7.10;;;2.95;;
37517;SDS011;23366;52.498;13.446;2024-02-21T04:47:11;8.95;;;4.05;;
37517;SDS011;23366;52.498;13.446;2024-02-21T04:49:38;14.88;;;5.55;;
37517;SDS011;23366;52.498;13.446;2024-02-21T04:52:04;19.67;;;4.85;;
37517;SDS011;23366;52.498;13.446;2024-02-21T04:54:30;13.23;;;3.92;;
37517;SDS011;23366;52.498;13.446;2024-02-21T04:56:56;16.52;;;4.47;;
37517;SDS011;23366;52.498;13.446;2024-02-21T04:59:22;8.35;;;3.47;;
37517;SDS011;23366;52.498;13.446;2024-02-21T05:01:48;7.93;;;3.80;;
37517;SDS011;23366;52.498;13.446;2024-02-21T05:04:14;14.52;;;5.03;;
37517;SDS011;23366;52.498;13.446;2024-02-21T05:06:40;7.50;;;3.53;;
37517;SDS011;23366;52.498;13.446;2024-02-21T05:09:06;8.50;;;3.72;;
37517;SDS011;23366;52.498;13.446;2024-02-21T05:11:36;7.40;;;4.03;;
37517;SDS011;23366;52.498;13.446;2024-02-21T05:14:05;6.95;;;3.30;;
37517;SDS011;23366;52.498;13.446;2024-02-21T05:16:32;12.27;;;4.20;;
37517;SDS011;23366;52.498;13.446;2024-02-21T05:18:58;10.25;;;3.95;;
37517;SDS011;23366;52.498;13.446;2024-02-21T05:21:24;8.73;;;3.33;;
37517;SDS011;23366;52.498;13.446;2024-02-21T05:23:50;7.45;;;3.67;;
37517;SDS011;23366;52.498;13.446;2024-02-21T05:26:23;8.98;;;4.18;;
37517;SDS011;23366;52.498;13.446;2024-02-21T05:28:49;5.15;;;3.83;;
37517;SDS011;23366;52.498;13.446;2024-02-21T05:31:16;14.18;;;4.75;;
37517;SDS011;23366;52.498;13.446;2024-02-21T05:33:42;7.68;;;3.35;;
37517;SDS011;23366;52.498;13.446;2024-02-21T05:36:08;13.35;;;4.80;;
37517;SDS011;23366;52.498;13.446;2024-02-21T05:38:34;9.48;;;4.47;;
37517;SDS011;23366;52.498;13.446;2024-02-21T05:41:00;7.43;;;3.75;;
37517;SDS011;23366;52.498;13.446;2024-02-21T05:43:26;9.35;;;3.63;;
37517;SDS011;23366;52.498;13.446;2024-02-21T05:45:52;9.93;;;4.90;;
37517;SDS011;23366;52.498;13.446;2024-02-21T05:48:18;7.90;;;4.35;;
37517;SDS011;23366;52.498;13.446;2024-02-21T05:50:44;10.32;;;3.72;;
37517;SDS011;23366;52.498;13.446;2024-02-21T05:53:10;13.93;;;4.32;;
37517;SDS011;23366;52.498;13.446;2024-02-21T05:55:37;12.13;;;4.45;;
37517;SDS011;23366;52.498;13.446;2024-02-21T05:58:03;14.48;;;4.47;;
37517;SDS011;23366;52.498;13.446;2024-02-21T06:00:29;8.05;;;4.00;;
37517;SDS011;23366;52.498;13.446;2024-02-21T06:02:55;8.32;;;4.38;;
37517;SDS011;23366;52.498;13.446;2024-02-21T06:05:21;7.70;;;3.28;;
37517;SDS011;23366;52.498;13.446;2024-02-21T06:07:46;13.60;;;5.20;;
37517;SDS011;23366;52.498;13.446;2024-02-21T06:10:12;12.65;;;5.97;;
37517;SDS011;23366;52.498;13.446;2024-02-21T06:12:38;5.20;;;3.60;;
37517;SDS011;23366;52.498;13.446;2024-02-21T06:15:04;6.70;;;3.65;;
37517;SDS011;23366;52.498;13.446;2024-02-21T06:17:31;10.93;;;4.25;;
37517;SDS011;23366;52.498;13.446;2024-02-21T06:19:57;22.20;;;5.45;;
37517;SDS011;23366;52.498;13.446;2024-02-21T06:22:23;11.90;;;4.75;;
37517;SDS011;23366;52.498;13.446;2024-02-21T06:24:49;17.40;;;5.90;;
37517;SDS011;23366;52.498;13.446;2024-02-21T06:27:15;5.75;;;3.38;;
37517;SDS011;23366;52.498;13.446;2024-02-21T06:29:42;7.47;;;3.25;;
37517;SDS011;23366;52.498;13.446;2024-02-21T06:32:08;9.60;;;4.43;;
37517;SDS011;23366;52.498;13.446;2024-02-21T06:34:34;12.85;;;3.88;;
37517;SDS011;23366;52.498;13.446;2024-02-21T06:37:00;13.75;;;5.72;;
37517;SDS011;23366;52.498;13.446;2024-02-21T06:39:26;16.10;;;4.25;;
37517;SDS011;23366;52.498;13.446;2024-02-21T06:41:54;6.45;;;3.90;;
37517;SDS011;23366;52.498;13.446;2024-02-21T06:44:21;12.65;;;4.40;;
37517;SDS011;23366;52.498;13.446;2024-02-21T06:46:47;14.27;;;6.00;;
37517;SDS011;23366;52.498;13.446;2024-02-21T06:49:13;9.10;;;5.00;;
37517;SDS011;23366;52.498;13.446;2024-02-21T06:51:42;5.50;;;3.88;;
37517;SDS011;23366;52.498;13.446;2024-02-21T06:54:08;8.68;;;5.15;;
37517;SDS011;23366;52.498;13.446;2024-02-21T06:56:35;10.30;;;4.50;;
37517;SDS011;23366;52.498;13.446;2024-02-21T06:59:01;5.65;;;3.50;;
37517;SDS011;23366;52.498;13.446;2024-02-21T07:01:28;9.82;;;4.22;;
37517;SDS011;23366;52.498;13.446;2024-02-21T07:03:54;9.50;;;4.28;;
37517;SDS011;23366;52.498;13.446;2024-02-21T07:06:20;10.55;;;4.63;;
37517;SDS011;23366;52.498;13.446;2024-02-21T07:08:46;14.32;;;3.90;;
37517;SDS011;23366;52.498;13.446;2024-02-21T07:11:12;8.52;;;4.10;;
37517;SDS011;23366;52.498;13.446;2024-02-21T07:13:38;6.97;;;3.33;;
37517;SDS011;23366;52.498;13.446;2024-02-21T07:16:05;11.40;;;3.75;;
37517;SDS011;23366;52.498;13.446;2024-02-21T07:18:31;9.38;;;3.83;;
37517;SDS011;23366;52.498;13.446;2024-02-21T07:20:56;11.45;;;4.40;;
37517;SDS011;23366;52.498;13.446;2024-02-21T07:23:23;9.07;;;4.22;;
37517;SDS011;23366;52.498;13.446;2024-02-21T07:25:49;7.38;;;3.72;;
37517;SDS011;23366;52.498;13.446;2024-02-21T07:28:15;10.65;;;4.50;;
37517;SDS011;23366;52.498;13.446;2024-02-21T07:30:42;8.25;;;4.00;;
37517;SDS011;23366;52.498;13.446;2024-02-21T07:33:08;11.65;;;4.78;;
37517;SDS011;23366;52.498;13.446;2024-02-21T07:35:34;11.55;;;5.85;;
37517;SDS011;23366;52.498;13.446;2024-02-21T07:38:03;5.57;;;4.13;;
37517;SDS011;23366;52.498;13.446;2024-02-21T07:40:29;12.48;;;5.40;;
37517;SDS011;23366;52.498;13.446;2024-02-21T07:42:56;12.43;;;4.30;;
37517;SDS011;23366;52.498;13.446;2024-02-21T07:45:22;7.85;;;5.43;;
37517;SDS011;23366;52.498;13.446;2024-02-21T07:47:49;15.40;;;5.30;;
37517;SDS011;23366;52.498;13.446;2024-02-21T07:50:15;11.18;;;5.03;;
37517;SDS011;23366;52.498;13.446;2024-02-21T07:52:42;8.43;;;4.25;;
37517;SDS011;23366;52.498;13.446;2024-02-21T07:55:08;9.55;;;4.70;;
37517;SDS011;23366;52.498;13.446;2024-02-21T07:57:35;13.80;;;5.63;;
37517;SDS011;23366;52.498;13.446;2024-02-21T08:00:01;13.38;;;5.05;;
37517;SDS011;23366;52.498;13.446;2024-02-21T08:02:29;10.65;;;4.35;;
37517;SDS011;23366;52.498;13.446;2024-02-21T08:04:55;11.38;;;6.25;;
37517;SDS011;23366;52.498;13.446;2024-02-21T08:07:21;11.50;;;5.55;;
37517;SDS011;23366;52.498;13.446;2024-02-21T08:09:47;10.55;;;3.63;;
37517;SDS011;23366;52.498;13.446;2024-02-21T08:12:13;16.75;;;5.03;;
37517;SDS011;23366;52.498;13.446;2024-02-21T08:14:39;11.85;;;5.40;;
37517;SDS011;23366;52.498;13.446;2024-02-21T08:17:05;8.13;;;3.58;;
37517;SDS011;23366;52.498;13.446;2024-02-21T08:19:31;8.77;;;4.32;;
37517;SDS011;23366;52.498;13.446;2024-02-21T08:21:57;9.88;;;5.43;;
37517;SDS011;23366;52.498;13.446;2024-02-21T08:24:23;13.52;;;5.50;;
37517;SDS011;23366;52.498;13.446;2024-02-21T08:26:49;8.57;;;4.13;;
37517;SDS011;23366;52.498;13.446;2024-02-21T08:29:15;8.02;;;3.65;;
37517;SDS011;23366;52.498;13.446;2024-02-21T08:31:41;12.30;;;5.05;;
37517;SDS011;23366;52.498;13.446;2024-02-21T08:34:07;11.13;;;4.28;;
37517;SDS011;23366;52.498;13.446;2024-02-21T08:36:33;14.68;;;5.97;;
37517;SDS011;23366;52.498;13.446;2024-02-21T08:38:59;12.88;;;5.00;;
37517;SDS011;23366;52.498;13.446;2024-02-21T08:41:25;14.65;;;6.68;;
37517;SDS011;23366;52.498;13.446;2024-02-21T08:43:52;8.88;;;4.30;;
37517;SDS011;23366;52.498;13.446;2024-02-21T08:46:19;14.00;;;4.78;;
37517;SDS011;23366;52.498;13.446;2024-02-21T08:48:45;8.32;;;4.65;;
37517;SDS011;23366;52.498;13.446;2024-02-21T08:51:11;10.05;;;4.65;;
37517;SDS011;23366;52.498;13.446;2024-02-21T08:53:37;15.30;;;5.47;;
37517;SDS011;23366;52.498;13.446;2024-02-21T08:56:04;9.15;;;4.53;;
37517;SDS011;23366;52.498;13.446;2024-02-21T08:58:30;6.30;;;4.07;;
37517;SDS011;23366;52.498;13.446;2024-02-21T09:00:56;13.20;;;5.35;;
37517;SDS011;23366;52.498;13.446;2024-02-21T09:03:22;16.83;;;4.90;;
37517;SDS011;23366;52.498;13.446;2024-02-21T09:05:48;10.57;;;4.07;;
37517;SDS011;23366;52.498;13.446;2024-02-21T09:08:14;10.23;;;5.15;;
37517;SDS011;23366;52.498;13.446;2024-02-21T09:10:40;12.80;;;5.15;;
37517;SDS011;23366;52.498;13.446;2024-02-21T09:13:06;11.18;;;4.50;;
37517;SDS011;23366;52.498;13.446;2024-02-21T09:15:33;8.95;;;4.50;;
37517;SDS011;23366;52.498;13.446;2024-02-21T09:17:59;11.80;;;5.57;;
37517;SDS011;23366;52.498;13.446;2024-02-21T09:20:25;10.38;;;5.05;;
37517;SDS011;23366;52.498;13.446;2024-02-21T09:22:51;12.63;;;4.72;;
37517;SDS011;23366;52.498;13.446;2024-02-21T09:25:18;11.98;;;5.30;;
37517;SDS011;23366;52.498;13.446;2024-02-21T09:27:44;8.98;;;4.75;;
37517;SDS011;23366;52.498;13.446;2024-02-21T09:30:10;13.20;;;5.47;;
37517;SDS011;23366;52.498;13.446;2024-02-21T09:32:36;12.98;;;5.15;;
37517;SDS011;23366;52.498;13.446;2024-02-21T09:35:02;19.83;;;6.18;;
37517;SDS011;23366;52.498;13.446;2024-02-21T09:37:28;16.70;;;6.03;;
37517;SDS011;23366;52.498;13.446;2024-02-21T09:39:54;8.60;;;4.55;;
37517;SDS011;23366;52.498;13.446;2024-02-21T09:42:20;15.80;;;5.53;;
37517;SDS011;23366;52.498;13.446;2024-02-21T09:44:47;16.58;;;4.43;;
37517;SDS011;23366;52.498;13.446;2024-02-21T09:47:17;8.65;;;5.13;;
37517;SDS011;23366;52.498;13.446;2024-02-21T09:49:44;12.75;;;5.10;;
37517;SDS011;23366;52.498;13.446;2024-02-21T09:52:11;11.00;;;5.13;;
37517;SDS011;23366;52.498;13.446;2024-02-21T09:54:39;11.15;;;4.97;;
37517;SDS011;23366;52.498;13.446;2024-02-21T09:57:06;15.10;;;7.45;;
37517;SDS011;23366;52.498;13.446;2024-02-21T09:59:32;9.52;;;4.78;;
37517;SDS011;23366;52.498;13.446;2024-02-21T10:01:59;11.38;;;4.57;;
37517;SDS011;23366;52.498;13.446;2024-02-21T10:04:25;10.77;;;4.90;;
37517;SDS011;23366;52.498;13.446;2024-02-21T10:06:53;11.60;;;6.78;;
37517;SDS011;23366;52.498;13.446;2024-02-21T10:09:22;12.02;;;5.10;;
37517;SDS011;23366;52.498;13.446;2024-02-21T10:11:49;9.05;;;4.35;;
37517;SDS011;23366;52.498;13.446;2024-02-21T10:14:16;10.88;;;6.70;;
37517;SDS011;23366;52.498;13.446;2024-02-21T10:16:43;9.30;;;5.18;;
37517;SDS011;23366;52.498;13.446;2024-02-21T10:19:19;13.43;;;5.60;;
37517;SDS011;23366;52.498;13.446;2024-02-21T10:22:07;12.05;;;5.82;;
37517;SDS011;23366;52.498;13.446;2024-02-21T10:24:32;5.75;;;3.70;;
37517;SDS011;23366;52.498;13.446;2024-02-21T10:27:08;14.20;;;6.82;;
37517;SDS011;23366;52.498;13.446;2024-02-21T10:29:35;9.55;;;5.03;;
37517;SDS011;23366;52.498;13.446;2024-02-21T10:32:05;13.88;;;6.10;;
37517;SDS011;23366;52.498;13.446;2024-02-21T10:34:32;7.30;;;4.63;;
37517;SDS011;23366;52.498;13.446;2024-02-21T10:37:05;15.25;;;4.68;;
37517;SDS011;23366;52.498;13.446;2024-02-21T10:39:34;5.28;;;3.95;;
37517;SDS011;23366;52.498;13.446;2024-02-21T10:42:01;7.15;;;5.72;;
37517;SDS011;23366;52.498;13.446;2024-02-21T10:44:29;12.75;;;5.22;;
37517;SDS011;23366;52.498;13.446;2024-02-21T10:46:55;5.93;;;3.75;;
37517;SDS011;23366;52.498;13.446;2024-02-21T10:49:26;9.18;;;4.40;;
37517;SDS011;23366;52.498;13.446;2024-02-21T10:56:51;9.60;;;4.45;;
37517;SDS011;23366;52.498;13.446;2024-02-21T10:59:17;10.18;;;3.95;;
37517;SDS011;23366;52.498;13.446;2024-02-21T11:01:43;5.30;;;3.78;;
37517;SDS011;23366;52.498;13.446;2024-02-21T11:04:10;7.40;;;4.43;;
37517;SDS011;23366;52.498;13.446;2024-02-21T11:06:37;8.38;;;4.07;;
37517;SDS011;23366;52.498;13.446;2024-02-21T11:09:04;10.60;;;4.38;;
37517;SDS011;23366;52.498;13.446;2024-02-21T11:11:34;6.93;;;4.57;;
37517;SDS011;23366;52.498;13.446;2024-02-21T11:14:03;7.88;;;4.78;;
37517;SDS011;23366;52.498;13.446;2024-02-21T11:16:34;7.90;;;3.65;;
37517;SDS011;23366;52.498;13.446;2024-02-21T11:19:07;7.25;;;4.50;;
37517;SDS011;23366;52.498;13.446;2024-02-21T11:21:34;9.80;;;3.25;;
37517;SDS011;23366;52.498;13.446;2024-02-21T11:24:01;7.55;;;4.05;;
37517;SDS011;23366;52.498;13.446;2024-02-21T11:26:27;6.93;;;3.40;;
37517;SDS011;23366;52.498;13.446;2024-02-21T11:28:57;10.98;;;3.88;;
37517;SDS011;23366;52.498;13.446;2024-02-21T11:31:24;8.73;;;4.80;;
37517;SDS011;23366;52.498;13.446;2024-02-21T11:33:52;10.68;;;3.90;;
37517;SDS011;23366;52.498;13.446;2024-02-21T11:36:25;9.15;;;4.50;;
37517;SDS011;23366;52.498;13.446;2024-02-21T11:38:52;9.52;;;3.95;;
37517;SDS011;23366;52.498;13.446;2024-02-21T11:41:20;6.30;;;3.40;;
37517;SDS011;23366;52.498;13.446;2024-02-21T11:43:48;6.80;;;3.60;;
37517;SDS011;23366;52.498;13.446;2024-02-21T11:46:15;5.95;;;3.83;;
37517;SDS011;23366;52.498;13.446;2024-02-21T11:48:41;9.15;;;3.15;;
37517;SDS011;23366;52.498;13.446;2024-02-21T11:51:20;7.35;;;3.60;;
37517;SDS011;23366;52.498;13.446;2024-02-21T11:53:47;10.10;;;4.50;;
37517;SDS011;23366;52.498;13.446;2024-02-21T11:56:13;5.80;;;3.70;;
37517;SDS011;23366;52.498;13.446;2024-02-21T11:58:39;5.45;;;3.15;;
37517;SDS011;23366;52.498;13.446;2024-02-21T12:01:05;4.07;;;2.92;;
37517;SDS011;23366;52.498;13.446;2024-02-21T12:03:32;5.07;;;3.47;;
37517;SDS011;23366;52.498;13.446;2024-02-21T12:06:00;6.40;;;3.22;;
37517;SDS011;23366;52.498;13.446;2024-02-21T12:08:28;6.00;;;3.17;;
37517;SDS011;23366;52.498;13.446;2024-02-21T12:10:54;7.55;;;3.38;;
37517;SDS011;23366;52.498;13.446;2024-02-21T12:13:22;8.77;;;4.45;;
37517;SDS011;23366;52.498;13.446;2024-02-21T12:15:49;9.13;;;2.75;;
37517;SDS011;23366;52.498;13.446;2024-02-21T12:18:15;3.65;;;2.65;;
37517;SDS011;23366;52.498;13.446;2024-02-21T12:20:41;7.53;;;2.67;;
37517;SDS011;23366;52.498;13.446;2024-02-21T12:23:09;4.80;;;3.05;;
37517;SDS011;23366;52.498;13.446;2024-02-21T12:25:35;5.47;;;3.00;;
37517;SDS011;23366;52.498;13.446;2024-02-21T12:28:01;5.90;;;2.85;;
37517;SDS011;23366;52.498;13.446;2024-02-21T12:30:28;6.75;;;3.05;;
37517;SDS011;23366;52.498;13.446;2024-02-21T12:32:55;3.50;;;2.17;;
37517;SDS011;23366;52.498;13.446;2024-02-21T12:35:23;6.05;;;2.60;;
37517;SDS011;23366;52.498;13.446;2024-02-21T12:37:49;3.50;;;2.10;;
37517;SDS011;23366;52.498;13.446;2024-02-21T12:40:15;7.18;;;2.63;;
37517;SDS011;23366;52.498;13.446;2024-02-21T12:42:41;8.50;;;3.03;;
37517;SDS011;23366;52.498;13.446;2024-02-21T12:45:07;2.53;;;2.08;;
37517;SDS011;23366;52.498;13.446;2024-02-21T12:47:33;8.35;;;2.85;;
37517;SDS011;23366;52.498;13.446;2024-02-21T12:49:59;5.20;;;3.05;;
37517;SDS011;23366;52.498;13.446;2024-02-21T12:52:25;4.10;;;2.33;;
37517;SDS011;23366;52.498;13.446;2024-02-21T12:54:51;4.78;;;2.03;;
37517;SDS011;23366;52.498;13.446;2024-02-21T12:57:17;2.65;;;1.75;;
37517;SDS011;23366;52.498;13.446;2024-02-21T12:59:43;2.47;;;1.67;;
37517;SDS011;23366;52.498;13.446;2024-02-21T13:02:09;3.05;;;1.98;;
37517;SDS011;23366;52.498;13.446;2024-02-21T13:04:35;2.75;;;1.77;;
37517;SDS011;23366;52.498;13.446;2024-02-21T13:07:01;4.25;;;2.00;;
37517;SDS011;23366;52.498;13.446;2024-02-21T13:09:27;3.25;;;2.17;;
37517;SDS011;23366;52.498;13.446;2024-02-21T13:11:53;4.50;;;2.25;;
37517;SDS011;23366;52.498;13.446;2024-02-21T13:14:19;2.17;;;1.50;;
37517;SDS011;23366;52.498;13.446;2024-02-21T13:16:45;3.85;;;1.90;;
37517;SDS011;23366;52.498;13.446;2024-02-21T13:19:11;5.05;;;2.63;;
37517;SDS011;23366;52.498;13.446;2024-02-21T13:21:38;2.00;;;1.40;;
37517;SDS011;23366;52.498;13.446;2024-02-21T13:24:04;4.10;;;1.83;;
37517;SDS011;23366;52.498;13.446;2024-02-21T13:26:30;3.25;;;2.00;;
37517;SDS011;23366;52.498;13.446;2024-02-21T13:28:56;2.75;;;1.67;;
37517;SDS011;23366;52.498;13.446;2024-02-21T13:31:22;1.77;;;1.38;;
37517;SDS011;23366;52.498;13.446;2024-02-21T13:33:50;7.53;;;3.03;;
37517;SDS011;23366;52.498;13.446;2024-02-21T13:36:17;11.02;;;2.40;;
37517;SDS011;23366;52.498;13.446;2024-02-21T13:38:44;3.90;;;2.10;;
37517;SDS011;23366;52.498;13.446;2024-02-21T13:41:10;3.83;;;1.80;;
37517;SDS011;23366;52.498;13.446;2024-02-21T13:43:36;3.50;;;1.70;;
37517;SDS011;23366;52.498;13.446;2024-02-21T13:46:03;7.20;;;2.50;;
37517;SDS011;23366;52.498;13.446;2024-02-21T13:48:31;4.95;;;2.33;;
37517;SDS011;23366;52.498;13.446;2024-02-21T13:50:58;4.57;;;2.20;;
37517;SDS011;23366;52.498;13.446;2024-02-21T13:53:26;6.80;;;3.70;;
37517;SDS011;23366;52.498;13.446;2024-02-21T13:55:52;7.43;;;3.33;;
37517;SDS011;23366;52.498;13.446;2024-02-21T13:58:18;5.72;;;1.90;;
37517;SDS011;23366;52.498;13.446;2024-02-21T14:00:45;6.65;;;2.90;;
37517;SDS011;23366;52.498;13.446;2024-02-21T14:03:11;5.22;;;2.33;;
37517;SDS011;23366;52.498;13.446;2024-02-21T14:05:37;5.13;;;2.67;;
37517;SDS011;23366;52.498;13.446;2024-02-21T14:08:04;3.30;;;2.38;;
37517;SDS011;23366;52.498;13.446;2024-02-21T14:10:31;3.05;;;2.03;;
37517;SDS011;23366;52.498;13.446;2024-02-21T14:12:57;2.72;;;1.77;;
37517;SDS011;23366;52.498;13.446;2024-02-21T14:15:23;5.28;;;2.15;;
37517;SDS011;23366;52.498;13.446;2024-02-21T14:17:50;4.30;;;2.40;;
37517;SDS011;23366;52.498;13.446;2024-02-21T14:20:16;4.32;;;2.10;;
37517;SDS011;23366;52.498;13.446;2024-02-21T14:22:41;6.40;;;2.38;;
37517;SDS011;23366;52.498;13.446;2024-02-21T14:25:08;4.18;;;2.22;;
37517;SDS011;23366;52.498;13.446;2024-02-21T14:27:34;5.60;;;3.13;;
37517;SDS011;23366;52.498;13.446;2024-02-21T14:30:03;6.53;;;3.10;;
37517;SDS011;23366;52.498;13.446;2024-02-21T14:32:29;4.13;;;1.80;;
37517;SDS011;23366;52.498;13.446;2024-02-21T14:34:55;4.45;;;2.92;;